Time;durP1;ratioP1;P1;durP2;ratioP2;P2;SDS_P1;SDS_P2;PMS_P1;PMS_P2;Temp;Humidity;BMP_temperature;BMP_pressure;BME280_temperature;BME280_humidity;BME280_pressure;Samples;Min_cycle;Max_cycle;Signal;HPM_P1;HPM_P2
2022/11/19 00:00:40;;;;;;;11.57;7.82;;;6.20;87.70;;;;;;5071010;28;20025;-26
2022/11/19 00:03:05;;;;;;;12.05;7.97;;;6.20;87.60;;;;;;5070965;28;20078;-27
2022/11/19 00:05:31;;;;;;;12.73;8.02;;;6.20;87.70;;;;;;5071113;28;20415;-26
2022/11/19 00:07:56;;;;;;;14.10;8.60;;;6.20;87.60;;;;;;5071161;28;20065;-28
2022/11/19 00:10:22;;;;;;;14.20;8.57;;;6.20;87.50;;;;;;5070815;28;20021;-26
2022/11/19 00:12:54;;;;;;;12.15;7.78;;;6.10;87.60;;;;;;5070938;28;20029;-41
2022/11/19 00:15:20;;;;;;;13.30;8.52;;;6.10;88.30;;;;;;5070732;28;20060;-40
2022/11/19 00:17:45;;;;;;;11.30;7.95;;;6.10;87.70;;;;;;5070666;28;20021;-41
2022/11/19 00:20:11;;;;;;;11.90;8.52;;;6.10;87.80;;;;;;5070609;28;20043;-43
2022/11/19 00:22:36;;;;;;;13.10;8.18;;;6.10;87.70;;;;;;5070730;28;20028;-30
2022/11/19 00:25:03;;;;;;;12.00;8.63;;;6.10;87.80;;;;;;5070851;28;20025;-31
2022/11/19 00:27:30;;;;;;;13.43;8.07;;;6.10;88.00;;;;;;5052666;28;20028;-28
2022/11/19 00:29:55;;;;;;;12.27;8.40;;;6.00;88.00;;;;;;5070856;28;20563;-26
2022/11/19 00:32:21;;;;;;;12.15;8.57;;;6.10;88.10;;;;;;5072488;28;20140;-28
2022/11/19 00:34:46;;;;;;;10.98;8.23;;;6.00;88.00;;;;;;5074301;28;20017;-29
2022/11/19 00:37:12;;;;;;;13.68;9.23;;;6.10;87.90;;;;;;5073977;28;20480;-29
2022/11/19 00:39:37;;;;;;;11.40;7.82;;;6.10;87.70;;;;;;5074045;28;20455;-32
2022/11/19 00:42:03;;;;;;;13.52;8.45;;;6.10;87.80;;;;;;5074103;28;20035;-26
2022/11/19 00:44:29;;;;;;;11.82;7.88;;;6.10;87.60;;;;;;5073897;28;20031;-29
2022/11/19 00:46:54;;;;;;;12.60;9.13;;;6.00;87.50;;;;;;5074106;28;20066;-31
2022/11/19 00:49:20;;;;;;;12.52;9.05;;;6.00;87.70;;;;;;5073865;28;20029;-29
2022/11/19 00:51:45;;;;;;;12.32;8.65;;;5.90;87.80;;;;;;5073857;28;20070;-27
2022/11/19 00:54:11;;;;;;;13.00;9.20;;;6.00;87.90;;;;;;5073761;28;20021;-29
2022/11/19 00:56:36;;;;;;;12.60;8.98;;;5.90;87.70;;;;;;5073823;28;20131;-27
2022/11/19 00:59:02;;;;;;;11.75;8.20;;;6.00;87.90;;;;;;5073817;28;20028;-35
2022/11/19 01:01:28;;;;;;;13.35;8.65;;;5.90;87.80;;;;;;5073626;28;20500;-43
2022/11/19 01:03:54;;;;;;;11.80;8.80;;;5.90;87.70;;;;;;5073628;28;20055;-27
2022/11/19 01:06:21;;;;;;;12.60;9.18;;;5.90;87.50;;;;;;5073390;28;20050;-29
2022/11/19 01:08:48;;;;;;;14.25;9.45;;;5.90;87.70;;;;;;5073498;28;20103;-26
2022/11/19 01:11:19;;;;;;;12.02;9.13;;;5.80;87.20;;;;;;5073389;28;20025;-33
2022/11/19 01:13:45;;;;;;;13.48;9.15;;;5.80;87.20;;;;;;5055330;28;20417;-27
2022/11/19 01:16:14;;;;;;;11.48;8.55;;;5.80;87.50;;;;;;5073181;28;20031;-39
2022/11/19 01:18:41;;;;;;;12.25;9.00;;;5.80;87.50;;;;;;5073268;28;20032;-31
2022/11/19 01:21:07;;;;;;;12.55;9.43;;;5.80;87.70;;;;;;5073305;28;20032;-27
2022/11/19 01:23:33;;;;;;;12.23;8.45;;;5.70;87.70;;;;;;5073139;28;20056;-27
2022/11/19 01:25:59;;;;;;;12.52;9.43;;;5.70;87.60;;;;;;5072975;28;20391;-28
2022/11/19 01:28:25;;;;;;;13.02;9.32;;;5.70;88.00;;;;;;5073755;28;20025;-29
2022/11/19 01:30:51;;;;;;;11.88;8.80;;;5.80;88.00;;;;;;5073185;28;20334;-28
2022/11/19 01:33:17;;;;;;;13.93;9.23;;;5.70;87.50;;;;;;5073352;28;20035;-27
2022/11/19 01:35:42;;;;;;;14.18;9.85;;;5.70;87.40;;;;;;5073194;28;20029;-35
2022/11/19 01:38:08;;;;;;;11.88;8.48;;;5.70;87.40;;;;;;5073207;28;20082;-39
2022/11/19 01:40:41;;;;;;;12.48;8.88;;;5.70;87.40;;;;;;5073055;28;20025;-31
2022/11/19 01:43:10;;;;;;;13.15;9.55;;;5.70;87.20;;;;;;5054958;28;20047;-33
2022/11/19 01:45:44;;;;;;;14.40;10.10;;;5.70;87.40;;;;;;5072901;28;20020;-33
2022/11/19 01:48:28;;;;;;;;;;;5.60;87.00;;;;;;5073415;28;20092;-33
2022/11/19 01:50:55;;;;;;;;;;;5.60;87.20;;;;;;5073283;28;19908;-33
2022/11/19 01:53:24;;;;;;;13.10;8.75;;;5.50;87.30;;;;;;5072667;28;19908;-33
2022/11/19 01:55:51;;;;;;;13.30;9.35;;;5.50;87.50;;;;;;5072662;28;20388;-33
2022/11/19 01:58:21;;;;;;;15.30;10.32;;;5.50;87.70;;;;;;5072680;28;20111;-32
2022/11/19 02:00:47;;;;;;;15.88;10.55;;;5.50;87.40;;;;;;5072676;28;20070;-32
2022/11/19 02:03:14;;;;;;;16.02;11.25;;;5.40;87.30;;;;;;5072557;28;20029;-32
2022/11/19 02:05:41;;;;;;;15.52;10.82;;;5.40;87.10;;;;;;5072579;28;20123;-32
2022/11/19 02:08:28;;;;;;;15.48;10.80;;;5.40;86.90;;;;;;5072312;28;20184;-34
2022/11/19 02:11:21;;;;;;;16.80;10.68;;;5.40;86.80;;;;;;5072110;28;20028;-32
2022/11/19 02:14:01;;;;;;;14.65;10.43;;;5.30;86.70;;;;;;5072334;28;20082;-32
2022/11/19 02:16:43;;;;;;;15.15;11.05;;;5.30;86.90;;;;;;5072250;28;20115;-31
2022/11/19 02:19:47;;;;;;;17.60;12.05;;;5.40;86.90;;;;;;5072174;28;20029;-31
2022/11/19 02:22:46;;;;;;;18.10;12.02;;;5.40;86.40;;;;;;5071979;28;20055;-30
2022/11/19 02:25:23;;;;;;;17.27;11.57;;;5.30;86.30;;;;;;5071854;28;20076;-30
2022/11/19 02:28:21;;;;;;;16.00;11.35;;;5.30;86.50;;;;;;5071709;28;20037;-30
2022/11/19 02:30:51;;;;;;;16.73;11.32;;;5.20;86.20;;;;;;5071913;28;20025;-34
2022/11/19 02:33:27;;;;;;;17.73;12.02;;;5.20;86.30;;;;;;5071911;28;20021;-35
2022/11/19 02:36:07;;;;;;;15.23;10.50;;;5.20;86.20;;;;;;5071861;28;20056;-34
2022/11/19 02:38:50;;;;;;;16.13;10.55;;;5.20;86.30;;;;;;5071644;28;20032;-25
2022/11/19 02:41:38;;;;;;;16.55;11.60;;;5.20;86.90;;;;;;5071872;28;20048;-25
2022/11/19 02:47:34;;;;;;;16.65;11.82;;;5.10;86.60;;;;;;5009285;28;20100;-25
2022/11/19 02:50:17;;;;;;;18.40;12.98;;;5.10;87.10;;;;;;5009390;28;20058;-25
2022/11/19 02:52:45;;;;;;;19.70;13.38;;;5.10;86.70;;;;;;5046789;28;20072;-24
2022/11/19 02:55:12;;;;;;;19.33;13.73;;;5.00;86.60;;;;;;5070812;28;20090;-25
2022/11/19 02:57:41;;;;;;;19.42;13.13;;;5.00;86.50;;;;;;5071782;28;20476;-36
2022/11/19 03:05:48;;;;;;;;;;;4.90;86.30;;;;;;5071969;28;20518;-30
2022/11/19 03:08:14;;;;;;;17.88;12.75;;;4.90;86.30;;;;;;5071481;28;19905;-30
2022/11/19 03:11:17;;;;;;;18.88;13.02;;;4.90;86.30;;;;;;5071520;28;20024;-30
2022/11/19 03:17:20;;;;;;;17.35;12.32;;;4.80;86.30;;;;;;5071643;28;20067;-31
2022/11/19 03:20:01;;;;;;;16.58;11.70;;;4.70;87.10;;;;;;5071597;28;20475;-26
2022/11/19 03:22:33;;;;;;;18.30;12.35;;;4.60;86.90;;;;;;5071505;28;20035;-25
2022/11/19 03:25:07;;;;;;;17.45;12.15;;;4.70;87.70;;;;;;5071526;28;20037;-27
2022/11/19 03:27:53;;;;;;;19.88;13.65;;;4.60;87.40;;;;;;5071332;28;20030;-26
2022/11/19 03:30:19;;;;;;;20.38;13.50;;;4.60;87.30;;;;;;5071478;28;20130;-29
2022/11/19 03:32:58;;;;;;;19.33;12.65;;;4.70;87.30;;;;;;5071282;28;20086;-25
2022/11/19 03:35:44;;;;;;;17.70;12.68;;;4.60;87.30;;;;;;5071324;28;20040;-38
2022/11/19 03:38:15;;;;;;;21.10;13.35;;;4.60;87.20;;;;;;5071206;28;20021;-34
2022/11/19 03:40:43;;;;;;;18.40;12.27;;;4.70;87.20;;;;;;5071031;28;20096;-35
2022/11/19 03:43:12;;;;;;;18.63;12.68;;;4.70;87.40;;;;;;5071213;28;20490;-30
2022/11/19 03:45:44;;;;;;;19.33;13.07;;;4.70;87.20;;;;;;5071086;28;20336;-30
2022/11/19 03:48:12;;;;;;;19.58;13.35;;;4.70;87.50;;;;;;5071135;28;20017;-31
2022/11/19 03:51:05;;;;;;;16.80;12.40;;;4.60;87.40;;;;;;5071105;28;20479;-31
2022/11/19 03:53:31;;;;;;;16.70;12.15;;;4.60;87.70;;;;;;5070158;28;20120;-30
2022/11/19 03:56:06;;;;;;;17.02;11.43;;;4.60;87.80;;;;;;5071028;28;20476;-27
2022/11/19 03:58:41;;;;;;;14.27;10.07;;;4.60;87.70;;;;;;5071054;28;20048;-33
2022/11/19 04:01:07;;;;;;;20.55;13.32;;;4.60;90.00;;;;;;5070932;28;20025;-42
2022/11/19 04:03:33;;;;;;;21.63;14.60;;;4.50;89.20;;;;;;5070571;28;20032;-39
2022/11/19 04:05:58;;;;;;;22.23;14.68;;;4.50;89.30;;;;;;5071977;28;20476;-42
2022/11/19 04:08:24;;;;;;;23.30;16.33;;;4.50;88.70;;;;;;5074609;28;20103;-36
2022/11/19 04:10:49;;;;;;;23.80;16.38;;;4.40;88.70;;;;;;5074429;28;20027;-34
2022/11/19 04:13:15;;;;;;;24.42;16.08;;;4.30;87.90;;;;;;5074377;28;20020;-27
2022/11/19 04:15:41;;;;;;;22.30;14.60;;;4.30;88.00;;;;;;5074332;28;20021;-26
2022/11/19 04:18:06;;;;;;;23.17;15.27;;;4.30;87.60;;;;;;5074244;28;20051;-28
2022/11/19 04:20:32;;;;;;;21.92;14.82;;;4.30;87.30;;;;;;5074266;28;20074;-27
2022/11/19 04:22:58;;;;;;;22.48;15.50;;;4.30;87.20;;;;;;5074313;28;20421;-27
2022/11/19 04:25:23;;;;;;;22.10;14.32;;;4.30;87.00;;;;;;5074135;28;20028;-29
2022/11/19 04:27:49;;;;;;;23.38;15.65;;;4.20;86.80;;;;;;5074183;28;20058;-30
2022/11/19 04:30:15;;;;;;;24.20;15.43;;;4.20;86.70;;;;;;5074100;28;20028;-35
2022/11/19 04:32:41;;;;;;;23.67;15.27;;;4.30;86.30;;;;;;5074262;28;20024;-39
2022/11/19 04:35:07;;;;;;;21.85;14.80;;;4.20;86.40;;;;;;5074360;28;20491;-42
2022/11/19 04:37:32;;;;;;;23.02;15.63;;;4.30;86.10;;;;;;5074091;28;20029;-40
2022/11/19 04:39:58;;;;;;;22.40;14.95;;;4.20;86.10;;;;;;5074303;28;20499;-38
2022/11/19 04:42:24;;;;;;;21.60;14.10;;;4.20;86.10;;;;;;5074004;28;20028;-25
2022/11/19 04:44:49;;;;;;;23.80;15.38;;;4.20;86.10;;;;;;5073882;28;20029;-35
2022/11/19 04:47:15;;;;;;;24.02;15.20;;;4.20;85.90;;;;;;5073845;28;20021;-36
2022/11/19 04:49:40;;;;;;;23.50;15.23;;;4.20;85.60;;;;;;5073891;28;20031;-35
2022/11/19 04:52:06;;;;;;;20.02;13.63;;;4.20;85.80;;;;;;5073743;28;20032;-39
2022/11/19 04:54:31;;;;;;;20.83;13.65;;;4.20;85.80;;;;;;5073707;28;20021;-39
2022/11/19 04:56:57;;;;;;;20.58;13.38;;;4.30;85.90;;;;;;5073603;28;20032;-40
2022/11/19 04:59:22;;;;;;;22.92;14.98;;;4.30;85.90;;;;;;5073562;28;20028;-26
2022/11/19 05:01:48;;;;;;;18.83;12.85;;;4.30;85.70;;;;;;5073657;28;20123;-45
2022/11/19 05:04:14;;;;;;;25.17;14.65;;;4.30;86.30;;;;;;5073064;28;20412;-31
2022/11/19 05:06:39;;;;;;;24.00;16.00;;;4.30;86.20;;;;;;5073371;28;20029;-30
2022/11/19 05:09:05;;;;;;;23.08;15.32;;;4.20;85.60;;;;;;5073360;28;20029;-26
2022/11/19 05:11:30;;;;;;;23.70;16.10;;;4.20;85.60;;;;;;5073538;28;20048;-27
2022/11/19 05:13:56;;;;;;;21.13;14.05;;;4.20;85.40;;;;;;5073458;28;20031;-25
2022/11/19 05:16:22;;;;;;;23.25;14.88;;;4.10;85.50;;;;;;5073462;28;20028;-26
2022/11/19 05:18:47;;;;;;;24.25;15.65;;;4.20;85.50;;;;;;5072732;28;20024;-29
2022/11/19 05:21:13;;;;;;;22.90;15.38;;;4.10;85.30;;;;;;5073133;28;20036;-27
2022/11/19 05:23:38;;;;;;;22.42;14.80;;;4.10;85.20;;;;;;5055398;28;20119;-28
2022/11/19 05:26:04;;;;;;;23.00;15.25;;;4.10;85.10;;;;;;5072805;28;20108;-26
2022/11/19 05:28:31;;;;;;;26.58;18.17;;;4.10;85.10;;;;;;5072937;28;20085;-25
2022/11/19 05:30:58;;;;;;;25.27;16.05;;;4.00;84.50;;;;;;5073027;28;20028;-35
2022/11/19 05:33:23;;;;;;;25.63;16.65;;;4.00;84.70;;;;;;5072980;28;20025;-31
2022/11/19 05:35:49;;;;;;;24.70;15.98;;;3.90;84.80;;;;;;5073177;28;20074;-32
2022/11/19 05:38:15;;;;;;;26.20;15.73;;;3.90;85.00;;;;;;5073338;28;20031;-25
2022/11/19 05:40:43;;;;;;;24.95;15.75;;;3.80;84.90;;;;;;5072934;28;20021;-27
2022/11/19 05:43:09;;;;;;;24.63;15.93;;;3.80;84.80;;;;;;5073074;28;20058;-29
2022/11/19 05:45:34;;;;;;;24.55;16.38;;;3.80;84.80;;;;;;5072910;28;20021;-23
2022/11/19 05:48:00;;;;;;;23.50;14.82;;;3.80;84.90;;;;;;5072886;28;20052;-25
2022/11/19 05:50:26;;;;;;;27.75;16.63;;;3.80;84.80;;;;;;5072848;28;20056;-24
2022/11/19 05:52:51;;;;;;;25.05;15.88;;;3.70;85.20;;;;;;5072788;28;20025;-25
2022/11/19 05:55:17;;;;;;;25.67;15.60;;;3.60;84.50;;;;;;5072666;28;20055;-41
2022/11/19 05:57:42;;;;;;;23.55;15.40;;;3.60;84.50;;;;;;5072568;28;20032;-36
2022/11/19 06:00:09;;;;;;;24.00;15.73;;;3.60;84.50;;;;;;5072605;28;20037;-41
2022/11/19 06:02:35;;;;;;;23.70;15.30;;;3.50;84.30;;;;;;5072670;28;20040;-41
2022/11/19 06:05:01;;;;;;;22.38;14.63;;;3.50;84.40;;;;;;5072238;28;20511;-40
2022/11/19 06:07:26;;;;;;;22.83;15.15;;;3.50;84.70;;;;;;5072339;28;20036;-34
2022/11/19 06:09:52;;;;;;;24.48;15.02;;;3.50;84.50;;;;;;5072213;28;20033;-33
2022/11/19 06:12:18;;;;;;;21.73;14.65;;;3.50;84.40;;;;;;5072243;28;20104;-33
2022/11/19 06:14:43;;;;;;;23.58;14.13;;;3.40;84.40;;;;;;5072383;28;20017;-32
2022/11/19 06:17:09;;;;;;;23.15;14.15;;;3.40;84.70;;;;;;5072427;28;20033;-31
2022/11/19 06:19:35;;;;;;;22.48;14.45;;;3.40;84.90;;;;;;5072162;28;20032;-32
2022/11/19 06:22:00;;;;;;;23.50;14.60;;;3.40;84.70;;;;;;5071968;28;20027;-27
2022/11/19 06:24:26;;;;;;;25.20;15.07;;;3.40;84.70;;;;;;5072024;28;20024;-27
2022/11/19 06:26:51;;;;;;;19.45;12.65;;;3.40;84.60;;;;;;5071810;28;20085;-26
2022/11/19 06:29:18;;;;;;;24.85;16.05;;;3.40;84.60;;;;;;5071557;28;20070;-25
2022/11/19 06:31:44;;;;;;;19.90;13.15;;;3.40;84.20;;;;;;5071830;28;20025;-29
2022/11/19 06:34:10;;;;;;;21.92;14.20;;;3.40;84.30;;;;;;5071917;28;20031;-27
2022/11/19 06:36:35;;;;;;;23.70;15.15;;;3.30;84.20;;;;;;5071791;28;20060;-28
2022/11/19 06:39:01;;;;;;;23.85;14.82;;;3.30;83.60;;;;;;5071853;28;20036;-24
2022/11/19 06:41:27;;;;;;;22.42;14.18;;;3.30;84.10;;;;;;5071673;28;20133;-24
2022/11/19 06:43:52;;;;;;;23.13;13.77;;;3.20;84.20;;;;;;5071881;28;20028;-25
2022/11/19 06:46:18;;;;;;;21.88;14.02;;;3.20;84.00;;;;;;5071715;28;20078;-24
2022/11/19 06:48:44;;;;;;;22.60;13.73;;;3.30;84.30;;;;;;5071760;28;20035;-30
2022/11/19 06:51:09;;;;;;;22.75;14.55;;;3.30;84.30;;;;;;5053725;28;20025;-26
2022/11/19 06:53:35;;;;;;;22.75;14.38;;;3.30;84.30;;;;;;5071746;28;20045;-25
2022/11/19 06:56:03;;;;;;;24.77;14.63;;;3.20;84.00;;;;;;5071650;28;20040;-28
2022/11/19 06:58:29;;;;;;;24.50;16.13;;;3.20;84.00;;;;;;5071768;28;20051;-24
2022/11/19 07:00:55;;;;;;;24.27;15.38;;;3.20;83.60;;;;;;5071568;28;20056;-26
2022/11/19 07:03:21;;;;;;;23.65;13.82;;;3.10;83.60;;;;;;5071468;28;20056;-28
2022/11/19 07:05:47;;;;;;;21.10;12.98;;;3.10;83.80;;;;;;5071387;28;20107;-27
2022/11/19 07:08:13;;;;;;;20.90;13.57;;;3.10;84.20;;;;;;5071424;28;20059;-30
2022/11/19 07:10:39;;;;;;;18.27;11.73;;;3.10;84.40;;;;;;5071494;28;20025;-24
2022/11/19 07:13:05;;;;;;;20.48;12.98;;;3.10;84.30;;;;;;5071357;28;20487;-26
2022/11/19 07:15:30;;;;;;;20.13;12.77;;;3.20;84.70;;;;;;5071517;28;20048;-24
2022/11/19 07:17:56;;;;;;;19.42;12.88;;;3.20;84.70;;;;;;5071293;28;20025;-28
2022/11/19 07:20:21;;;;;;;19.23;12.48;;;3.20;84.30;;;;;;5053045;28;20388;-24
2022/11/19 07:22:47;;;;;;;23.35;13.45;;;3.20;84.40;;;;;;5071286;28;20036;-26
2022/11/19 07:25:12;;;;;;;21.77;13.20;;;3.20;85.00;;;;;;5070904;28;20028;-24
2022/11/19 07:27:39;;;;;;;19.80;12.43;;;3.20;84.20;;;;;;5070895;28;20056;-39
2022/11/19 07:30:06;;;;;;;22.05;13.38;;;3.20;84.30;;;;;;5071334;28;20024;-25
2022/11/19 07:32:32;;;;;;;20.80;13.18;;;3.20;84.10;;;;;;5070894;28;20013;-34
2022/11/19 07:34:58;;;;;;;19.75;11.70;;;3.20;83.90;;;;;;5071207;28;20017;-34
2022/11/19 07:37:24;;;;;;;19.85;12.15;;;3.20;84.40;;;;;;5071227;28;20510;-34
2022/11/19 07:39:49;;;;;;;19.92;12.93;;;3.20;84.40;;;;;;5071117;28;20360;-36
2022/11/19 07:44:59;;;;;;;20.52;13.13;;;3.20;84.90;;;;;;5075554;28;20109;-34
2022/11/19 07:47:25;;;;;;;20.63;13.05;;;3.10;84.50;;;;;;5074924;28;20448;-38
2022/11/19 07:49:50;;;;;;;20.90;13.48;;;3.10;84.60;;;;;;5075220;28;20357;-31
2022/11/19 07:52:16;;;;;;;22.42;13.88;;;3.10;84.50;;;;;;5075043;28;20494;-29
2022/11/19 07:54:41;;;;;;;18.73;11.15;;;3.10;84.20;;;;;;5075317;28;20028;-27
2022/11/19 07:57:07;;;;;;;18.10;10.98;;;3.10;84.50;;;;;;5075336;28;20025;-29
2022/11/19 07:59:33;;;;;;;17.10;10.65;;;3.10;86.20;;;;;;5075157;28;20688;-26
2022/11/19 08:01:58;;;;;;;18.63;10.55;;;3.10;86.10;;;;;;5074957;28;20060;-26
2022/11/19 08:04:27;;;;;;;21.33;13.23;;;3.00;87.60;;;;;;5074580;28;20048;-25
2022/11/19 08:06:53;;;;;;;21.23;12.60;;;3.00;87.20;;;;;;5074717;28;20502;-25
2022/11/19 08:09:18;;;;;;;20.80;13.15;;;2.90;87.10;;;;;;5074619;28;20024;-25
2022/11/19 08:11:44;;;;;;;18.25;10.77;;;2.90;86.10;;;;;;5074607;28;20025;-24
2022/11/19 08:14:13;;;;;;;15.63;10.48;;;2.80;88.10;;;;;;5074678;28;20025;-24
2022/11/19 08:19:23;;;;;;;20.80;13.57;;;2.80;88.30;;;;;;5074717;28;20146;-25
2022/11/19 08:21:49;;;;;;;19.88;12.10;;;2.70;87.20;;;;;;5074300;28;20040;-27
2022/11/19 08:24:17;;;;;;;19.23;12.57;;;2.70;87.00;;;;;;5074324;28;20028;-26
2022/11/19 08:26:43;;;;;;;19.10;11.85;;;2.70;87.00;;;;;;5074219;28;20048;-29
2022/11/19 08:29:12;;;;;;;21.23;12.40;;;2.70;87.00;;;;;;5074302;28;20498;-25
2022/11/19 08:31:39;;;;;;;16.75;10.95;;;2.70;86.80;;;;;;5074327;28;20024;-32
2022/11/19 08:34:04;;;;;;;17.75;10.88;;;2.60;86.60;;;;;;5074281;28;20491;-29
2022/11/19 08:36:30;;;;;;;19.65;12.55;;;2.60;86.60;;;;;;5074211;28;20028;-29
2022/11/19 08:38:57;;;;;;;20.08;12.98;;;2.60;85.50;;;;;;5073969;28;20534;-28
2022/11/19 08:44:07;;;;;;;19.63;12.13;;;2.50;85.90;;;;;;5074102;28;20446;-26
2022/11/19 08:46:33;;;;;;;19.27;11.07;;;2.50;86.70;;;;;;5073895;28;20033;-26
2022/11/19 08:48:59;;;;;;;17.42;10.63;;;2.40;86.30;;;;;;5055928;28;20030;-25
2022/11/19 08:51:25;;;;;;;18.10;10.70;;;2.40;86.30;;;;;;5073823;28;20504;-29
2022/11/19 08:53:51;;;;;;;17.13;11.05;;;2.40;86.10;;;;;;5073023;28;20723;-26
2022/11/19 08:56:18;;;;;;;16.15;9.95;;;2.40;87.00;;;;;;5073960;28;20020;-30
2022/11/19 08:58:43;;;;;;;16.48;10.88;;;2.30;86.80;;;;;;5073791;28;20039;-27
2022/11/19 09:01:11;;;;;;;15.02;9.80;;;2.30;86.50;;;;;;5073822;28;20480;-25
2022/11/19 09:03:37;;;;;;;18.05;10.88;;;2.30;86.60;;;;;;5073558;28;20033;-27
2022/11/19 09:06:03;;;;;;;18.50;11.30;;;2.30;86.30;;;;;;5073340;28;20039;-28
2022/11/19 09:08:29;;;;;;;18.23;10.95;;;2.20;86.40;;;;;;5073554;28;20028;-25
2022/11/19 09:10:54;;;;;;;18.75;11.63;;;2.20;86.10;;;;;;5055419;28;20032;-26
2022/11/19 09:13:20;;;;;;;15.77;10.38;;;2.30;85.60;;;;;;5073507;28;20024;-27
2022/11/19 09:15:50;;;;;;;16.73;10.48;;;2.30;85.60;;;;;;5074057;28;20047;-30
2022/11/19 09:18:16;;;;;;;16.08;11.18;;;2.40;85.60;;;;;;5073413;28;20515;-29
2022/11/19 09:20:42;;;;;;;18.15;11.52;;;2.40;85.60;;;;;;5055364;28;20036;-31
2022/11/19 09:23:08;;;;;;;16.00;10.95;;;2.50;85.20;;;;;;5073092;28;20032;-27
2022/11/19 09:25:34;;;;;;;18.67;11.90;;;2.50;84.90;;;;;;5073126;28;20031;-30
2022/11/19 09:28:00;;;;;;;18.17;12.15;;;2.50;84.30;;;;;;5073137;28;20032;-25
2022/11/19 09:30:25;;;;;;;17.63;11.07;;;2.50;83.30;;;;;;5072984;28;20028;-28
2022/11/19 09:32:51;;;;;;;17.65;11.52;;;2.50;83.40;;;;;;5073108;28;20046;-27
2022/11/19 09:35:17;;;;;;;14.40;9.35;;;2.40;83.30;;;;;;5054814;28;20074;-27
2022/11/19 09:37:43;;;;;;;12.70;8.32;;;2.50;84.20;;;;;;5072894;28;20081;-26
2022/11/19 09:40:17;;;;;;;17.27;9.60;;;2.50;85.30;;;;;;5073057;28;20119;-25
2022/11/19 09:43:05;;;;;;;13.90;8.70;;;2.50;85.90;;;;;;5072946;28;20178;-26
2022/11/19 09:45:53;;;;;;;12.30;8.43;;;2.50;87.20;;;;;;5073138;28;20108;-28
2022/11/19 09:48:27;;;;;;;14.95;9.50;;;2.60;87.20;;;;;;5072835;28;20063;-29
2022/11/19 09:50:58;;;;;;;12.40;8.23;;;2.70;86.70;;;;;;5072765;28;20036;-26
2022/11/19 09:53:30;;;;;;;11.45;7.53;;;2.80;87.80;;;;;;5072610;28;20031;-25
2022/11/19 09:55:58;;;;;;;12.95;8.68;;;2.80;88.70;;;;;;5072460;28;20107;-25
2022/11/19 09:58:37;;;;;;;13.45;8.90;;;2.90;88.90;;;;;;5072542;28;20048;-25
2022/11/19 10:01:03;;;;;;;14.68;9.70;;;2.90;88.60;;;;;;5072575;28;20028;-26
2022/11/19 10:03:29;;;;;;;15.70;10.27;;;2.90;87.70;;;;;;5072270;28;20075;-30
2022/11/19 10:06:17;;;;;;;15.50;9.35;;;2.90;87.00;;;;;;5072196;28;20060;-30
2022/11/19 10:09:09;;;;;;;10.93;7.63;;;2.90;87.40;;;;;;5072446;28;20040;-27
2022/11/19 10:12:13;;;;;;;10.65;7.90;;;2.90;88.00;;;;;;5069114;28;20041;-27
2022/11/19 10:15:08;;;;;;;12.98;9.20;;;3.00;89.10;;;;;;5068692;28;20508;-30
2022/11/19 10:18:11;;;;;;;12.70;8.38;;;3.00;89.00;;;;;;5072234;28;20033;-24
2022/11/19 10:20:54;;;;;;;11.25;7.97;;;3.10;88.00;;;;;;5072181;28;20033;-28
2022/11/19 10:23:47;;;;;;;11.50;7.82;;;3.10;88.60;;;;;;5072149;28;20075;-25
2022/11/19 10:26:16;;;;;;;11.70;8.38;;;3.30;88.60;;;;;;5071754;28;20422;-27
2022/11/19 10:28:53;;;;;;;13.82;9.65;;;3.20;88.50;;;;;;5054100;28;20496;-26
2022/11/19 10:31:31;;;;;;;12.68;8.50;;;3.20;88.20;;;;;;5072046;28;20441;-25
2022/11/19 10:34:22;;;;;;;13.32;9.38;;;3.20;87.00;;;;;;5072034;28;20028;-27
2022/11/19 10:37:02;;;;;;;14.75;9.90;;;3.20;86.50;;;;;;5071832;28;20024;-31
2022/11/19 10:39:37;;;;;;;10.55;7.57;;;3.20;86.10;;;;;;5071623;28;20061;-25
2022/11/19 10:42:40;;;;;;;13.40;8.50;;;3.30;86.60;;;;;;5071604;28;20064;-28
2022/11/19 10:45:16;;;;;;;11.60;8.02;;;3.40;87.20;;;;;;5058160;28;20068;-25
2022/11/19 10:47:52;;;;;;;12.25;8.23;;;3.40;87.10;;;;;;5053395;28;20116;-26
2022/11/19 10:50:20;;;;;;;13.73;8.18;;;3.50;86.60;;;;;;5071430;28;20148;-25
2022/11/19 10:52:54;;;;;;;15.32;8.77;;;3.50;85.50;;;;;;5071281;28;20433;-25
2022/11/19 10:55:31;;;;;;;12.65;8.65;;;3.60;85.10;;;;;;5071505;28;20521;-25
2022/11/19 10:58:25;;;;;;;11.07;7.60;;;3.60;84.80;;;;;;5071526;28;20472;-25
2022/11/19 11:00:56;;;;;;;11.70;7.63;;;3.70;84.20;;;;;;5071351;28;20039;-28
2022/11/19 11:03:32;;;;;;;10.07;7.05;;;3.70;84.30;;;;;;5071160;28;20558;-27
2022/11/19 11:06:08;;;;;;;11.82;8.07;;;3.80;84.20;;;;;;5052955;28;20045;-26
2022/11/19 11:08:48;;;;;;;11.82;7.72;;;3.80;83.20;;;;;;5071275;28;20695;-26
2022/11/19 11:11:22;;;;;;;7.38;5.35;;;3.80;83.10;;;;;;5071314;28;20085;-38
2022/11/19 11:16:46;;;;;;;8.30;6.00;;;4.00;85.90;;;;;;5070836;28;20047;-41
2022/11/19 11:19:18;;;;;;;11.88;8.40;;;4.10;85.50;;;;;;5071392;28;20039;-39
2022/11/19 11:21:44;;;;;;;9.30;6.65;;;4.10;84.10;;;;;;5071098;28;20111;-39
2022/11/19 11:24:12;;;;;;;9.57;6.55;;;4.10;84.70;;;;;;5071167;28;20044;-33
2022/11/19 11:26:39;;;;;;;8.07;5.70;;;4.20;85.20;;;;;;5071335;28;20127;-33
2022/11/19 11:29:11;;;;;;;10.68;7.13;;;4.20;85.40;;;;;;5071640;28;20027;-33
2022/11/19 11:31:41;;;;;;;9.35;7.05;;;4.20;83.80;;;;;;5071391;28;20480;-33
2022/11/19 11:34:27;;;;;;;11.70;6.93;;;4.20;83.60;;;;;;5071044;28;20028;-30
2022/11/19 11:36:54;;;;;;;10.68;6.90;;;4.20;84.20;;;;;;5053544;28;20047;-27
2022/11/19 11:39:26;;;;;;;10.93;7.63;;;4.30;84.50;;;;;;5071246;28;20039;-28
2022/11/19 11:41:54;;;;;;;9.70;6.97;;;4.30;83.00;;;;;;5071108;28;20033;-38
2022/11/19 11:44:22;;;;;;;12.13;8.38;;;4.30;83.20;;;;;;5070935;28;20032;-33
2022/11/19 11:46:58;;;;;;;12.65;8.40;;;4.30;80.90;;;;;;5071508;28;20171;-32
2022/11/19 11:49:34;;;;;;;12.25;8.10;;;4.20;80.70;;;;;;5071212;28;20077;-34
2022/11/19 11:52:08;;;;;;;11.32;7.53;;;4.20;81.50;;;;;;5071256;28;20162;-33
2022/11/19 11:54:36;;;;;;;11.95;7.97;;;4.20;81.50;;;;;;5071487;28;20032;-32
2022/11/19 11:57:18;;;;;;;11.75;8.27;;;4.20;80.20;;;;;;5071246;28;20036;-34
2022/11/19 11:59:44;;;;;;;11.95;8.18;;;4.20;77.90;;;;;;5071313;28;20043;-33
2022/11/19 12:02:31;;;;;;;10.73;7.35;;;4.20;77.30;;;;;;5071249;28;20036;-34
2022/11/19 12:05:04;;;;;;;9.65;7.05;;;4.20;78.40;;;;;;5071043;28;20126;-32
2022/11/19 12:07:58;;;;;;;10.07;7.22;;;4.20;78.60;;;;;;5071313;28;20058;-32
2022/11/19 12:10:26;;;;;;;8.93;6.43;;;4.30;78.40;;;;;;5071246;28;20042;-32
2022/11/19 12:13:14;;;;;;;11.50;6.32;;;4.30;78.50;;;;;;5071277;28;20040;-33
2022/11/19 12:16:02;;;;;;;10.02;6.07;;;4.50;78.50;;;;;;5071411;28;20021;-33
2022/11/19 12:18:35;;;;;;;8.18;5.82;;;4.50;79.00;;;;;;5070848;28;20103;-33
2022/11/19 12:21:21;;;;;;;7.93;5.85;;;4.60;79.80;;;;;;5071361;28;20024;-35
2022/11/19 12:24:05;;;;;;;7.82;6.05;;;4.70;80.60;;;;;;5070830;28;20046;-33
2022/11/19 12:27:03;;;;;;;9.52;6.25;;;4.80;80.30;;;;;;5071377;28;20113;-34
2022/11/19 12:29:40;;;;;;;6.63;5.22;;;4.80;80.00;;;;;;5074566;28;20059;-32
2022/11/19 12:32:33;;;;;;;10.15;6.40;;;4.90;79.90;;;;;;5074540;28;20033;-32
2022/11/19 12:35:22;;;;;;;7.97;5.45;;;5.00;79.50;;;;;;5074594;28;20025;-32
2022/11/19 12:38:02;;;;;;;7.70;5.50;;;5.00;78.90;;;;;;5074401;28;20111;-34
2022/11/19 12:40:34;;;;;;;9.63;6.68;;;5.10;78.40;;;;;;5074995;28;20488;-33
2022/11/19 12:43:26;;;;;;;7.35;5.80;;;5.00;77.10;;;;;;5074082;28;20050;-43
2022/11/19 12:46:13;;;;;;;7.13;5.30;;;5.00;77.20;;;;;;5074493;28;20028;-40
2022/11/19 12:48:54;;;;;;;6.25;4.45;;;5.10;77.80;;;;;;5074455;28;20514;-42
2022/11/19 12:51:32;;;;;;;7.20;4.60;;;5.10;79.60;;;;;;5074254;28;20056;-35
2022/11/19 12:54:27;;;;;;;7.00;4.93;;;5.20;80.00;;;;;;5074154;28;20085;-30
2022/11/19 12:57:16;;;;;;;6.50;4.65;;;5.30;79.30;;;;;;5064725;28;20408;-30
2022/11/19 13:00:09;;;;;;;6.15;4.93;;;5.30;78.70;;;;;;5074417;28;20033;-38
2022/11/19 13:02:46;;;;;;;6.28;4.65;;;5.40;77.90;;;;;;5074200;28;20399;-29
2022/11/19 13:05:20;;;;;;;5.80;4.60;;;5.40;77.60;;;;;;5073896;28;20052;-40
2022/11/19 13:07:52;;;;;;;6.47;4.60;;;5.40;77.20;;;;;;5073867;28;20036;-38
2022/11/19 13:10:24;;;;;;;5.30;3.97;;;5.50;76.70;;;;;;5074144;28;20021;-38
2022/11/19 13:12:53;;;;;;;7.10;4.68;;;5.60;78.30;;;;;;5074442;28;20066;-34
2022/11/19 13:15:25;;;;;;;4.82;3.90;;;5.60;78.70;;;;;;5073758;28;20100;-33
2022/11/19 13:17:54;;;;;;;5.28;4.03;;;5.70;79.00;;;;;;5073905;28;20052;-33
2022/11/19 13:20:24;;;;;;;5.22;4.20;;;5.70;79.30;;;;;;5073726;28;20032;-33
2022/11/19 13:22:54;;;;;;;4.53;3.90;;;5.70;79.00;;;;;;5073667;28;20107;-32
2022/11/19 13:25:27;;;;;;;6.40;4.50;;;5.70;79.00;;;;;;5073346;28;20479;-29